Terminal Aerodrome Forecast
Issued by NWS Lake Charles, LA

Home | Current Version | Previous Version | Text Only | Print | Product List | Glossary On
Versions: 1 2 3 4 5 6 7 8 9 10 11 12 13 14 15 16
542
FTUS44 KLCH 251724
TAFAEX
TAF
KAEX 251724Z 2518/2618 26016KT P6SM FEW040
     FM260000 VRB05KT P6SM SKC
     FM261100 VRB03KT 5SM BR SKC
     FM261500 18006KT P6SM SKC=

USA.gov is the U.S. government's official web portal to all federal, state and local government web resources and services.